sensor_id;sensor_type;location;lat;lon;timestamp;temperature;humidity
21033;DHT22;10675;47.976;7.824;2023-04-24T00:01:24;12.40;99.90
21033;DHT22;10675;47.976;7.824;2023-04-24T00:03:49;12.40;99.90
21033;DHT22;10675;47.976;7.824;2023-04-24T00:06:15;12.40;99.90
21033;DHT22;10675;47.976;7.824;2023-04-24T00:08:42;12.40;99.90
21033;DHT22;10675;47.976;7.824;2023-04-24T00:11:08;12.40;99.90
21033;DHT22;10675;47.976;7.824;2023-04-24T00:13:34;12.30;99.90
21033;DHT22;10675;47.976;7.824;2023-04-24T00:16:00;12.30;99.90
21033;DHT22;10675;47.976;7.824;2023-04-24T00:18:26;12.30;99.90
21033;DHT22;10675;47.976;7.824;2023-04-24T00:20:51;12.40;99.90
21033;DHT22;10675;47.976;7.824;2023-04-24T00:23:17;12.40;99.90
21033;DHT22;10675;47.976;7.824;2023-04-24T00:25:43;12.40;99.90
21033;DHT22;10675;47.976;7.824;2023-04-24T00:28:08;12.40;99.90
21033;DHT22;10675;47.976;7.824;2023-04-24T00:30:34;12.40;99.90
21033;DHT22;10675;47.976;7.824;2023-04-24T00:32:59;12.30;99.90
21033;DHT22;10675;47.976;7.824;2023-04-24T00:35:25;12.30;99.90
21033;DHT22;10675;47.976;7.824;2023-04-24T00:37:50;12.30;99.90
21033;DHT22;10675;47.976;7.824;2023-04-24T00:40:16;12.30;99.90
21033;DHT22;10675;47.976;7.824;2023-04-24T00:42:41;12.30;99.90
21033;DHT22;10675;47.976;7.824;2023-04-24T00:45:08;12.30;99.90
21033;DHT22;10675;47.976;7.824;2023-04-24T00:47:34;12.30;99.90
21033;DHT22;10675;47.976;7.824;2023-04-24T00:50:04;12.10;99.90
21033;DHT22;10675;47.976;7.824;2023-04-24T00:52:30;12.20;99.90
21033;DHT22;10675;47.976;7.824;2023-04-24T00:54:57;12.20;99.90
21033;DHT22;10675;47.976;7.824;2023-04-24T00:57:22;12.20;99.90
21033;DHT22;10675;47.976;7.824;2023-04-24T00:59:49;12.20;99.90
21033;DHT22;10675;47.976;7.824;2023-04-24T01:02:15;12.20;99.90
21033;DHT22;10675;47.976;7.824;2023-04-24T01:04:41;12.10;99.90
21033;DHT22;10675;47.976;7.824;2023-04-24T01:07:06;12.10;99.90
21033;DHT22;10675;47.976;7.824;2023-04-24T01:09:36;12.20;99.90
21033;DHT22;10675;47.976;7.824;2023-04-24T01:12:03;12.10;99.90
21033;DHT22;10675;47.976;7.824;2023-04-24T01:14:29;12.10;99.90
21033;DHT22;10675;47.976;7.824;2023-04-24T01:16:55;12.10;99.90
21033;DHT22;10675;47.976;7.824;2023-04-24T01:19:22;12.10;99.90
21033;DHT22;10675;47.976;7.824;2023-04-24T01:21:50;12.10;99.90
21033;DHT22;10675;47.976;7.824;2023-04-24T01:24:17;12.10;99.90
21033;DHT22;10675;47.976;7.824;2023-04-24T01:26:45;12.10;99.90
21033;DHT22;10675;47.976;7.824;2023-04-24T01:29:11;12.10;99.90
21033;DHT22;10675;47.976;7.824;2023-04-24T01:31:36;12.10;99.90
21033;DHT22;10675;47.976;7.824;2023-04-24T01:34:02;12.10;99.90
21033;DHT22;10675;47.976;7.824;2023-04-24T01:36:28;12.10;99.90
21033;DHT22;10675;47.976;7.824;2023-04-24T01:38:56;12.10;99.90
21033;DHT22;10675;47.976;7.824;2023-04-24T01:41:22;12.00;99.90
21033;DHT22;10675;47.976;7.824;2023-04-24T01:43:48;12.00;99.90
21033;DHT22;10675;47.976;7.824;2023-04-24T01:46:15;12.00;99.90
21033;DHT22;10675;47.976;7.824;2023-04-24T01:48:41;12.00;99.90
21033;DHT22;10675;47.976;7.824;2023-04-24T01:51:07;12.00;99.90
21033;DHT22;10675;47.976;7.824;2023-04-24T01:53:32;11.90;99.90
21033;DHT22;10675;47.976;7.824;2023-04-24T01:55:58;11.90;99.90
21033;DHT22;10675;47.976;7.824;2023-04-24T01:58:23;11.90;99.90
21033;DHT22;10675;47.976;7.824;2023-04-24T02:00:49;11.80;99.90
21033;DHT22;10675;47.976;7.824;2023-04-24T02:03:14;11.80;99.90
21033;DHT22;10675;47.976;7.824;2023-04-24T02:05:40;11.80;99.90
21033;DHT22;10675;47.976;7.824;2023-04-24T02:08:08;11.80;99.90
21033;DHT22;10675;47.976;7.824;2023-04-24T02:10:34;11.90;99.90
21033;DHT22;10675;47.976;7.824;2023-04-24T02:12:59;11.80;99.90
21033;DHT22;10675;47.976;7.824;2023-04-24T02:15:25;11.90;99.90
21033;DHT22;10675;47.976;7.824;2023-04-24T02:17:51;11.90;99.90
21033;DHT22;10675;47.976;7.824;2023-04-24T02:20:16;11.80;99.90
21033;DHT22;10675;47.976;7.824;2023-04-24T02:25:10;11.70;99.90
21033;DHT22;10675;47.976;7.824;2023-04-24T02:27:36;11.70;99.90
21033;DHT22;10675;47.976;7.824;2023-04-24T02:30:01;11.60;99.90
21033;DHT22;10675;47.976;7.824;2023-04-24T02:32:28;11.70;99.90
21033;DHT22;10675;47.976;7.824;2023-04-24T02:34:54;11.60;99.90
21033;DHT22;10675;47.976;7.824;2023-04-24T02:37:19;11.60;99.90
21033;DHT22;10675;47.976;7.824;2023-04-24T02:39:45;11.60;99.90
21033;DHT22;10675;47.976;7.824;2023-04-24T02:42:10;11.60;99.90
21033;DHT22;10675;47.976;7.824;2023-04-24T02:44:36;11.60;99.90
21033;DHT22;10675;47.976;7.824;2023-04-24T02:47:01;11.60;99.90
21033;DHT22;10675;47.976;7.824;2023-04-24T02:49:27;11.60;99.90
21033;DHT22;10675;47.976;7.824;2023-04-24T02:51:52;11.70;99.90
21033;DHT22;10675;47.976;7.824;2023-04-24T02:54:18;11.70;99.90
21033;DHT22;10675;47.976;7.824;2023-04-24T02:56:43;11.70;99.90
21033;DHT22;10675;47.976;7.824;2023-04-24T02:59:09;11.70;99.90
21033;DHT22;10675;47.976;7.824;2023-04-24T03:01:35;11.70;99.90
21033;DHT22;10675;47.976;7.824;2023-04-24T03:04:01;11.70;99.90
21033;DHT22;10675;47.976;7.824;2023-04-24T03:06:27;11.70;99.90
21033;DHT22;10675;47.976;7.824;2023-04-24T03:08:53;11.70;99.90
21033;DHT22;10675;47.976;7.824;2023-04-24T03:11:19;11.60;99.90
21033;DHT22;10675;47.976;7.824;2023-04-24T03:13:45;11.70;99.90
21033;DHT22;10675;47.976;7.824;2023-04-24T03:16:10;11.70;99.90
21033;DHT22;10675;47.976;7.824;2023-04-24T03:18:36;11.60;99.90
21033;DHT22;10675;47.976;7.824;2023-04-24T03:21:01;11.70;99.90
21033;DHT22;10675;47.976;7.824;2023-04-24T03:23:28;11.60;99.90
21033;DHT22;10675;47.976;7.824;2023-04-24T03:25:54;11.50;99.90
21033;DHT22;10675;47.976;7.824;2023-04-24T03:28:20;11.60;99.90
21033;DHT22;10675;47.976;7.824;2023-04-24T03:30:45;11.60;99.90
21033;DHT22;10675;47.976;7.824;2023-04-24T03:33:11;11.50;99.90
21033;DHT22;10675;47.976;7.824;2023-04-24T03:35:37;11.40;99.90
21033;DHT22;10675;47.976;7.824;2023-04-24T03:38:02;11.40;99.90
21033;DHT22;10675;47.976;7.824;2023-04-24T03:40:29;11.40;99.90
21033;DHT22;10675;47.976;7.824;2023-04-24T03:42:55;11.30;99.90
21033;DHT22;10675;47.976;7.824;2023-04-24T03:45:21;11.40;99.90
21033;DHT22;10675;47.976;7.824;2023-04-24T03:47:46;11.30;99.90
21033;DHT22;10675;47.976;7.824;2023-04-24T03:50:12;11.30;99.90
21033;DHT22;10675;47.976;7.824;2023-04-24T03:52:37;11.40;99.90
21033;DHT22;10675;47.976;7.824;2023-04-24T03:55:03;11.30;99.90
21033;DHT22;10675;47.976;7.824;2023-04-24T03:57:28;11.30;99.90
21033;DHT22;10675;47.976;7.824;2023-04-24T03:59:54;11.30;99.90
21033;DHT22;10675;47.976;7.824;2023-04-24T04:02:19;11.30;99.90
21033;DHT22;10675;47.976;7.824;2023-04-24T04:04:45;11.40;99.90
21033;DHT22;10675;47.976;7.824;2023-04-24T04:07:10;11.30;99.90
21033;DHT22;10675;47.976;7.824;2023-04-24T04:09:36;11.30;99.90
21033;DHT22;10675;47.976;7.824;2023-04-24T04:12:02;11.30;99.90
21033;DHT22;10675;47.976;7.824;2023-04-24T04:14:28;11.30;99.90
21033;DHT22;10675;47.976;7.824;2023-04-24T04:16:53;11.30;99.90
21033;DHT22;10675;47.976;7.824;2023-04-24T04:19:19;11.30;99.90
21033;DHT22;10675;47.976;7.824;2023-04-24T04:21:45;11.30;99.90
21033;DHT22;10675;47.976;7.824;2023-04-24T04:24:11;11.20;99.90
21033;DHT22;10675;47.976;7.824;2023-04-24T04:26:37;11.30;99.90
21033;DHT22;10675;47.976;7.824;2023-04-24T04:29:03;11.20;99.90
21033;DHT22;10675;47.976;7.824;2023-04-24T04:31:29;11.20;99.90
21033;DHT22;10675;47.976;7.824;2023-04-24T04:33:55;11.20;99.90
21033;DHT22;10675;47.976;7.824;2023-04-24T04:36:21;11.20;99.90
21033;DHT22;10675;47.976;7.824;2023-04-24T04:38:46;11.20;99.90
21033;DHT22;10675;47.976;7.824;2023-04-24T04:41:11;11.20;99.90
21033;DHT22;10675;47.976;7.824;2023-04-24T04:43:37;11.20;99.90
21033;DHT22;10675;47.976;7.824;2023-04-24T04:46:04;11.20;99.90
21033;DHT22;10675;47.976;7.824;2023-04-24T04:48:30;11.20;99.90
21033;DHT22;10675;47.976;7.824;2023-04-24T04:50:57;11.20;99.90
21033;DHT22;10675;47.976;7.824;2023-04-24T04:53:22;11.20;99.90
21033;DHT22;10675;47.976;7.824;2023-04-24T04:55:48;11.10;99.90
21033;DHT22;10675;47.976;7.824;2023-04-24T04:58:13;11.10;99.90
21033;DHT22;10675;47.976;7.824;2023-04-24T05:00:39;11.10;99.90
21033;DHT22;10675;47.976;7.824;2023-04-24T05:03:05;11.10;99.90
21033;DHT22;10675;47.976;7.824;2023-04-24T05:05:30;11.10;99.90
21033;DHT22;10675;47.976;7.824;2023-04-24T05:07:56;11.10;99.90
21033;DHT22;10675;47.976;7.824;2023-04-24T05:10:21;11.10;99.90
21033;DHT22;10675;47.976;7.824;2023-04-24T05:12:47;11.10;99.90
21033;DHT22;10675;47.976;7.824;2023-04-24T05:15:12;11.10;99.90
21033;DHT22;10675;47.976;7.824;2023-04-24T05:17:38;11.20;99.90
21033;DHT22;10675;47.976;7.824;2023-04-24T05:20:05;11.50;99.90
21033;DHT22;10675;47.976;7.824;2023-04-24T05:22:31;11.40;99.90
21033;DHT22;10675;47.976;7.824;2023-04-24T05:24:58;11.50;99.90
21033;DHT22;10675;47.976;7.824;2023-04-24T05:27:24;11.50;99.90
21033;DHT22;10675;47.976;7.824;2023-04-24T05:29:50;11.50;99.90
21033;DHT22;10675;47.976;7.824;2023-04-24T05:32:16;11.50;99.90
21033;DHT22;10675;47.976;7.824;2023-04-24T05:34:41;11.50;99.90
21033;DHT22;10675;47.976;7.824;2023-04-24T05:37:07;11.50;99.90
21033;DHT22;10675;47.976;7.824;2023-04-24T05:39:35;11.10;99.90
21033;DHT22;10675;47.976;7.824;2023-04-24T05:42:01;11.00;99.90
21033;DHT22;10675;47.976;7.824;2023-04-24T05:44:27;10.90;99.90
21033;DHT22;10675;47.976;7.824;2023-04-24T05:46:52;10.90;99.90
21033;DHT22;10675;47.976;7.824;2023-04-24T05:49:18;10.80;99.90
21033;DHT22;10675;47.976;7.824;2023-04-24T05:51:43;10.80;99.90
21033;DHT22;10675;47.976;7.824;2023-04-24T05:54:09;10.80;99.90
21033;DHT22;10675;47.976;7.824;2023-04-24T05:56:37;10.80;99.90
21033;DHT22;10675;47.976;7.824;2023-04-24T05:59:03;10.70;99.90
21033;DHT22;10675;47.976;7.824;2023-04-24T06:01:29;10.70;99.90
21033;DHT22;10675;47.976;7.824;2023-04-24T06:03:54;10.80;99.90
21033;DHT22;10675;47.976;7.824;2023-04-24T06:06:20;10.90;99.90
21033;DHT22;10675;47.976;7.824;2023-04-24T06:08:46;10.90;99.90
21033;DHT22;10675;47.976;7.824;2023-04-24T06:11:11;10.90;99.90
21033;DHT22;10675;47.976;7.824;2023-04-24T06:13:37;11.00;99.90
21033;DHT22;10675;47.976;7.824;2023-04-24T06:16:02;11.10;99.90
21033;DHT22;10675;47.976;7.824;2023-04-24T06:18:28;11.10;99.90
21033;DHT22;10675;47.976;7.824;2023-04-24T06:20:53;11.10;99.90
21033;DHT22;10675;47.976;7.824;2023-04-24T06:23:20;11.10;99.90
21033;DHT22;10675;47.976;7.824;2023-04-24T06:25:45;11.10;99.90
21033;DHT22;10675;47.976;7.824;2023-04-24T06:28:11;11.00;99.90
21033;DHT22;10675;47.976;7.824;2023-04-24T06:30:37;11.00;99.90
21033;DHT22;10675;47.976;7.824;2023-04-24T06:33:03;11.00;99.90
21033;DHT22;10675;47.976;7.824;2023-04-24T06:35:29;10.90;99.90
21033;DHT22;10675;47.976;7.824;2023-04-24T06:37:54;10.80;99.90
21033;DHT22;10675;47.976;7.824;2023-04-24T06:40:21;10.80;99.90
21033;DHT22;10675;47.976;7.824;2023-04-24T06:42:47;10.80;99.90
21033;DHT22;10675;47.976;7.824;2023-04-24T06:45:13;10.80;99.90
21033;DHT22;10675;47.976;7.824;2023-04-24T06:47:38;10.90;99.90
21033;DHT22;10675;47.976;7.824;2023-04-24T06:50:04;10.80;99.90
21033;DHT22;10675;47.976;7.824;2023-04-24T06:52:30;10.70;99.90
21033;DHT22;10675;47.976;7.824;2023-04-24T06:55:02;10.70;99.90
21033;DHT22;10675;47.976;7.824;2023-04-24T06:57:28;10.80;99.90
21033;DHT22;10675;47.976;7.824;2023-04-24T06:59:54;10.80;99.90
21033;DHT22;10675;47.976;7.824;2023-04-24T07:02:19;10.90;99.90
21033;DHT22;10675;47.976;7.824;2023-04-24T07:04:45;10.90;99.90
21033;DHT22;10675;47.976;7.824;2023-04-24T07:07:13;11.00;99.90
21033;DHT22;10675;47.976;7.824;2023-04-24T07:09:40;11.10;99.90
21033;DHT22;10675;47.976;7.824;2023-04-24T07:12:09;11.20;99.90
21033;DHT22;10675;47.976;7.824;2023-04-24T07:14:39;11.30;99.90
21033;DHT22;10675;47.976;7.824;2023-04-24T07:17:04;11.40;99.90
21033;DHT22;10675;47.976;7.824;2023-04-24T07:19:32;11.40;99.90
21033;DHT22;10675;47.976;7.824;2023-04-24T07:21:58;11.30;99.90
21033;DHT22;10675;47.976;7.824;2023-04-24T07:24:25;11.40;99.90
21033;DHT22;10675;47.976;7.824;2023-04-24T07:26:51;11.50;99.90
21033;DHT22;10675;47.976;7.824;2023-04-24T07:29:17;11.80;99.90
21033;DHT22;10675;47.976;7.824;2023-04-24T07:31:42;11.90;99.90
21033;DHT22;10675;47.976;7.824;2023-04-24T07:34:08;12.20;99.90
21033;DHT22;10675;47.976;7.824;2023-04-24T07:36:34;12.30;99.90
21033;DHT22;10675;47.976;7.824;2023-04-24T07:38:59;12.50;99.90
21033;DHT22;10675;47.976;7.824;2023-04-24T07:41:25;12.40;99.90
21033;DHT22;10675;47.976;7.824;2023-04-24T07:43:51;12.60;99.90
21033;DHT22;10675;47.976;7.824;2023-04-24T07:46:17;12.90;99.60
21033;DHT22;10675;47.976;7.824;2023-04-24T07:48:43;13.00;98.70
21033;DHT22;10675;47.976;7.824;2023-04-24T07:51:08;12.80;98.00
21033;DHT22;10675;47.976;7.824;2023-04-24T07:53:36;12.90;96.40
21033;DHT22;10675;47.976;7.824;2023-04-24T07:56:01;12.40;95.80
21033;DHT22;10675;47.976;7.824;2023-04-24T07:58:27;12.40;97.80
21033;DHT22;10675;47.976;7.824;2023-04-24T08:00:52;12.10;98.20
21033;DHT22;10675;47.976;7.824;2023-04-24T08:03:18;11.90;98.60
21033;DHT22;10675;47.976;7.824;2023-04-24T08:05:45;12.00;99.10
21033;DHT22;10675;47.976;7.824;2023-04-24T08:08:10;11.90;98.30
21033;DHT22;10675;47.976;7.824;2023-04-24T08:10:36;12.00;98.30
21033;DHT22;10675;47.976;7.824;2023-04-24T08:13:01;12.00;98.50
21033;DHT22;10675;47.976;7.824;2023-04-24T08:15:27;11.90;97.90
21033;DHT22;10675;47.976;7.824;2023-04-24T08:17:53;12.00;97.90
21033;DHT22;10675;47.976;7.824;2023-04-24T08:20:19;12.00;97.90
21033;DHT22;10675;47.976;7.824;2023-04-24T08:22:44;12.00;98.50
21033;DHT22;10675;47.976;7.824;2023-04-24T08:25:12;12.00;98.50
21033;DHT22;10675;47.976;7.824;2023-04-24T08:27:38;11.90;98.60
21033;DHT22;10675;47.976;7.824;2023-04-24T08:30:05;11.90;98.80
21033;DHT22;10675;47.976;7.824;2023-04-24T08:32:31;12.00;98.90
21033;DHT22;10675;47.976;7.824;2023-04-24T08:34:58;11.80;98.90
21033;DHT22;10675;47.976;7.824;2023-04-24T08:37:23;11.80;99.60
21033;DHT22;10675;47.976;7.824;2023-04-24T08:39:50;12.10;98.30
21033;DHT22;10675;47.976;7.824;2023-04-24T08:42:17;12.20;94.70
21033;DHT22;10675;47.976;7.824;2023-04-24T08:44:43;12.30;92.70
21033;DHT22;10675;47.976;7.824;2023-04-24T08:47:10;12.40;92.10
21033;DHT22;10675;47.976;7.824;2023-04-24T08:49:37;12.30;90.30
21033;DHT22;10675;47.976;7.824;2023-04-24T08:52:04;12.30;87.60
21033;DHT22;10675;47.976;7.824;2023-04-24T08:54:31;12.10;85.90
21033;DHT22;10675;47.976;7.824;2023-04-24T08:56:59;12.20;85.80
21033;DHT22;10675;47.976;7.824;2023-04-24T08:59:32;12.20;83.50
21033;DHT22;10675;47.976;7.824;2023-04-24T09:01:58;12.20;84.10
21033;DHT22;10675;47.976;7.824;2023-04-24T09:04:25;12.20;83.30
21033;DHT22;10675;47.976;7.824;2023-04-24T09:06:54;12.20;82.30
21033;DHT22;10675;47.976;7.824;2023-04-24T09:09:20;12.10;81.10
21033;DHT22;10675;47.976;7.824;2023-04-24T09:11:46;12.10;81.30
21033;DHT22;10675;47.976;7.824;2023-04-24T09:14:14;12.30;79.80
21033;DHT22;10675;47.976;7.824;2023-04-24T09:16:40;12.20;78.50
21033;DHT22;10675;47.976;7.824;2023-04-24T09:19:06;12.00;77.50
21033;DHT22;10675;47.976;7.824;2023-04-24T09:21:33;11.90;78.50
21033;DHT22;10675;47.976;7.824;2023-04-24T09:24:00;12.10;79.30
21033;DHT22;10675;47.976;7.824;2023-04-24T09:26:29;12.30;76.70
21033;DHT22;10675;47.976;7.824;2023-04-24T09:28:57;12.60;76.40
21033;DHT22;10675;47.976;7.824;2023-04-24T09:31:22;12.60;77.50
21033;DHT22;10675;47.976;7.824;2023-04-24T09:34:03;12.30;77.50
21033;DHT22;10675;47.976;7.824;2023-04-24T09:36:37;11.90;75.20
21033;DHT22;10675;47.976;7.824;2023-04-24T09:39:11;11.70;75.50
21033;DHT22;10675;47.976;7.824;2023-04-24T09:41:56;11.80;76.60
21033;DHT22;10675;47.976;7.824;2023-04-24T09:44:26;11.80;77.00
21033;DHT22;10675;47.976;7.824;2023-04-24T09:46:54;11.80;78.40
21033;DHT22;10675;47.976;7.824;2023-04-24T09:49:38;11.80;78.20
21033;DHT22;10675;47.976;7.824;2023-04-24T09:52:05;11.90;77.60
21033;DHT22;10675;47.976;7.824;2023-04-24T09:54:30;11.90;77.80
21033;DHT22;10675;47.976;7.824;2023-04-24T09:56:56;11.90;77.10
21033;DHT22;10675;47.976;7.824;2023-04-24T09:59:22;11.80;78.30
21033;DHT22;10675;47.976;7.824;2023-04-24T10:01:48;11.80;78.30
21033;DHT22;10675;47.976;7.824;2023-04-24T10:04:34;11.90;76.60
21033;DHT22;10675;47.976;7.824;2023-04-24T10:07:03;12.20;74.70
21033;DHT22;10675;47.976;7.824;2023-04-24T10:09:31;12.80;73.30
21033;DHT22;10675;47.976;7.824;2023-04-24T10:11:58;13.30;71.90
21033;DHT22;10675;47.976;7.824;2023-04-24T10:14:25;13.50;70.80
21033;DHT22;10675;47.976;7.824;2023-04-24T10:16:54;13.30;69.90
21033;DHT22;10675;47.976;7.824;2023-04-24T10:19:25;13.50;69.50
21033;DHT22;10675;47.976;7.824;2023-04-24T10:21:52;13.40;67.90
21033;DHT22;10675;47.976;7.824;2023-04-24T10:24:19;13.50;68.40
21033;DHT22;10675;47.976;7.824;2023-04-24T10:26:48;13.80;68.50
21033;DHT22;10675;47.976;7.824;2023-04-24T10:29:16;13.90;68.80
21033;DHT22;10675;47.976;7.824;2023-04-24T10:31:42;13.90;68.90
21033;DHT22;10675;47.976;7.824;2023-04-24T10:34:10;13.80;70.20
21033;DHT22;10675;47.976;7.824;2023-04-24T10:36:41;13.40;67.30
21033;DHT22;10675;47.976;7.824;2023-04-24T10:39:10;13.30;69.50
21033;DHT22;10675;47.976;7.824;2023-04-24T10:41:39;13.50;69.50
21033;DHT22;10675;47.976;7.824;2023-04-24T10:44:10;13.20;68.90
21033;DHT22;10675;47.976;7.824;2023-04-24T10:46:37;12.60;71.20
21033;DHT22;10675;47.976;7.824;2023-04-24T10:49:04;13.00;71.70
21033;DHT22;10675;47.976;7.824;2023-04-24T10:52:03;12.90;70.60
21033;DHT22;10675;47.976;7.824;2023-04-24T11:00:13;12.60;71.60
21033;DHT22;10675;47.976;7.824;2023-04-24T11:02:40;12.60;73.00
21033;DHT22;10675;47.976;7.824;2023-04-24T11:05:09;12.30;72.50
21033;DHT22;10675;47.976;7.824;2023-04-24T11:08:10;12.30;72.30
21033;DHT22;10675;47.976;7.824;2023-04-24T11:10:40;12.30;72.20
21033;DHT22;10675;47.976;7.824;2023-04-24T11:13:06;12.20;73.30
21033;DHT22;10675;47.976;7.824;2023-04-24T11:15:32;12.30;73.50
21033;DHT22;10675;47.976;7.824;2023-04-24T11:17:58;12.30;73.80
21033;DHT22;10675;47.976;7.824;2023-04-24T11:20:23;12.20;73.50
21033;DHT22;10675;47.976;7.824;2023-04-24T11:22:53;12.20;73.70
21033;DHT22;10675;47.976;7.824;2023-04-24T11:25:21;12.30;73.30
21033;DHT22;10675;47.976;7.824;2023-04-24T11:27:47;12.40;73.40
21033;DHT22;10675;47.976;7.824;2023-04-24T11:30:18;12.50;73.70
21033;DHT22;10675;47.976;7.824;2023-04-24T11:32:48;12.70;73.80
21033;DHT22;10675;47.976;7.824;2023-04-24T11:35:18;12.90;74.60
21033;DHT22;10675;47.976;7.824;2023-04-24T11:37:46;13.00;73.80
21033;DHT22;10675;47.976;7.824;2023-04-24T11:40:13;13.20;73.70
21033;DHT22;10675;47.976;7.824;2023-04-24T11:42:43;13.40;74.30
21033;DHT22;10675;47.976;7.824;2023-04-24T11:47:39;13.60;72.40
21033;DHT22;10675;47.976;7.824;2023-04-24T11:50:07;13.60;72.50
21033;DHT22;10675;47.976;7.824;2023-04-24T11:52:37;13.50;71.70
21033;DHT22;10675;47.976;7.824;2023-04-24T11:55:03;13.40;72.50
21033;DHT22;10675;47.976;7.824;2023-04-24T11:57:30;13.70;72.90
21033;DHT22;10675;47.976;7.824;2023-04-24T12:00:00;14.00;74.00
21033;DHT22;10675;47.976;7.824;2023-04-24T12:02:27;14.30;72.90
21033;DHT22;10675;47.976;7.824;2023-04-24T12:04:53;14.50;70.70
21033;DHT22;10675;47.976;7.824;2023-04-24T12:07:20;14.40;71.50
21033;DHT22;10675;47.976;7.824;2023-04-24T12:09:47;14.20;70.70
21033;DHT22;10675;47.976;7.824;2023-04-24T12:12:14;13.90;70.60
21033;DHT22;10675;47.976;7.824;2023-04-24T12:14:53;13.70;72.00
21033;DHT22;10675;47.976;7.824;2023-04-24T12:17:28;13.90;73.10
21033;DHT22;10675;47.976;7.824;2023-04-24T12:20:04;14.10;72.10
21033;DHT22;10675;47.976;7.824;2023-04-24T12:22:47;14.50;72.30
21033;DHT22;10675;47.976;7.824;2023-04-24T12:25:16;15.00;69.10
21033;DHT22;10675;47.976;7.824;2023-04-24T12:27:47;15.10;69.30
21033;DHT22;10675;47.976;7.824;2023-04-24T12:30:17;15.90;70.60
21033;DHT22;10675;47.976;7.824;2023-04-24T12:32:47;16.30;69.20
21033;DHT22;10675;47.976;7.824;2023-04-24T12:35:18;15.90;68.30
21033;DHT22;10675;47.976;7.824;2023-04-24T12:37:45;15.40;68.80
21033;DHT22;10675;47.976;7.824;2023-04-24T12:40:11;15.00;69.80
21033;DHT22;10675;47.976;7.824;2023-04-24T12:45:09;14.70;68.80
21033;DHT22;10675;47.976;7.824;2023-04-24T12:47:37;14.30;69.70
21033;DHT22;10675;47.976;7.824;2023-04-24T12:50:04;14.30;71.30
21033;DHT22;10675;47.976;7.824;2023-04-24T12:52:30;14.50;71.70
21033;DHT22;10675;47.976;7.824;2023-04-24T12:54:57;14.70;72.10
21033;DHT22;10675;47.976;7.824;2023-04-24T12:57:24;14.00;69.80
21033;DHT22;10675;47.976;7.824;2023-04-24T12:59:52;14.10;72.80
21033;DHT22;10675;47.976;7.824;2023-04-24T13:02:17;14.30;72.60
21033;DHT22;10675;47.976;7.824;2023-04-24T13:04:46;14.50;72.10
21033;DHT22;10675;47.976;7.824;2023-04-24T13:07:13;14.70;69.40
21033;DHT22;10675;47.976;7.824;2023-04-24T13:09:40;14.40;70.00
21033;DHT22;10675;47.976;7.824;2023-04-24T13:12:06;14.50;70.40
21033;DHT22;10675;47.976;7.824;2023-04-24T13:14:33;14.40;70.10
21033;DHT22;10675;47.976;7.824;2023-04-24T13:16:58;14.20;69.70
21033;DHT22;10675;47.976;7.824;2023-04-24T13:19:25;14.30;70.50
21033;DHT22;10675;47.976;7.824;2023-04-24T13:21:56;14.40;69.70
21033;DHT22;10675;47.976;7.824;2023-04-24T13:24:25;14.20;69.90
21033;DHT22;10675;47.976;7.824;2023-04-24T13:26:51;14.20;69.60
21033;DHT22;10675;47.976;7.824;2023-04-24T13:29:17;14.10;69.80
21033;DHT22;10675;47.976;7.824;2023-04-24T13:31:43;14.00;70.60
21033;DHT22;10675;47.976;7.824;2023-04-24T13:34:08;14.00;71.10
21033;DHT22;10675;47.976;7.824;2023-04-24T13:36:34;14.00;70.10
21033;DHT22;10675;47.976;7.824;2023-04-24T13:39:00;14.10;70.90
21033;DHT22;10675;47.976;7.824;2023-04-24T13:41:26;14.40;71.20
21033;DHT22;10675;47.976;7.824;2023-04-24T13:43:52;14.40;70.50
21033;DHT22;10675;47.976;7.824;2023-04-24T13:46:17;14.30;70.40
21033;DHT22;10675;47.976;7.824;2023-04-24T13:48:43;14.30;71.30
21033;DHT22;10675;47.976;7.824;2023-04-24T13:51:08;14.30;70.60
21033;DHT22;10675;47.976;7.824;2023-04-24T13:53:34;14.40;70.90
21033;DHT22;10675;47.976;7.824;2023-04-24T13:56:03;14.50;71.10
21033;DHT22;10675;47.976;7.824;2023-04-24T13:58:29;14.60;71.80
21033;DHT22;10675;47.976;7.824;2023-04-24T14:00:55;14.60;71.80
21033;DHT22;10675;47.976;7.824;2023-04-24T14:03:20;14.70;71.30
21033;DHT22;10675;47.976;7.824;2023-04-24T14:05:46;15.00;72.50
21033;DHT22;10675;47.976;7.824;2023-04-24T14:08:11;15.00;69.80
21033;DHT22;10675;47.976;7.824;2023-04-24T14:10:37;14.50;70.60
21033;DHT22;10675;47.976;7.824;2023-04-24T14:13:03;14.40;71.20
21033;DHT22;10675;47.976;7.824;2023-04-24T14:15:28;14.50;72.50
21033;DHT22;10675;47.976;7.824;2023-04-24T14:17:54;14.80;73.90
21033;DHT22;10675;47.976;7.824;2023-04-24T14:20:20;15.50;72.90
21033;DHT22;10675;47.976;7.824;2023-04-24T14:22:45;14.70;72.50
21033;DHT22;10675;47.976;7.824;2023-04-24T14:25:11;14.50;73.30
21033;DHT22;10675;47.976;7.824;2023-04-24T14:27:36;14.30;73.60
21033;DHT22;10675;47.976;7.824;2023-04-24T14:30:02;14.00;73.80
21033;DHT22;10675;47.976;7.824;2023-04-24T14:32:28;13.90;75.00
21033;DHT22;10675;47.976;7.824;2023-04-24T14:34:54;13.80;75.80
21033;DHT22;10675;47.976;7.824;2023-04-24T14:37:19;13.70;76.20
21033;DHT22;10675;47.976;7.824;2023-04-24T14:39:45;13.70;76.30
21033;DHT22;10675;47.976;7.824;2023-04-24T14:42:11;13.80;74.40
21033;DHT22;10675;47.976;7.824;2023-04-24T14:44:36;13.80;75.40
21033;DHT22;10675;47.976;7.824;2023-04-24T14:47:02;13.60;73.70
21033;DHT22;10675;47.976;7.824;2023-04-24T14:49:27;13.90;75.70
21033;DHT22;10675;47.976;7.824;2023-04-24T14:51:53;13.90;73.20
21033;DHT22;10675;47.976;7.824;2023-04-24T14:54:18;13.80;71.70
21033;DHT22;10675;47.976;7.824;2023-04-24T14:56:45;13.70;72.10
21033;DHT22;10675;47.976;7.824;2023-04-24T14:59:10;13.70;72.50
21033;DHT22;10675;47.976;7.824;2023-04-24T15:01:36;13.90;72.50
21033;DHT22;10675;47.976;7.824;2023-04-24T15:04:01;14.10;72.30
21033;DHT22;10675;47.976;7.824;2023-04-24T15:06:27;14.00;72.90
21033;DHT22;10675;47.976;7.824;2023-04-24T15:08:53;14.00;74.00
21033;DHT22;10675;47.976;7.824;2023-04-24T15:11:18;14.10;73.30
21033;DHT22;10675;47.976;7.824;2023-04-24T15:13:44;13.90;74.60
21033;DHT22;10675;47.976;7.824;2023-04-24T15:16:12;13.90;75.30
21033;DHT22;10675;47.976;7.824;2023-04-24T15:18:38;13.90;75.40
21033;DHT22;10675;47.976;7.824;2023-04-24T15:21:04;13.80;75.40
21033;DHT22;10675;47.976;7.824;2023-04-24T15:23:29;13.70;75.00
21033;DHT22;10675;47.976;7.824;2023-04-24T15:25:55;13.60;75.50
21033;DHT22;10675;47.976;7.824;2023-04-24T15:28:21;13.60;75.90
21033;DHT22;10675;47.976;7.824;2023-04-24T15:30:47;13.70;75.20
21033;DHT22;10675;47.976;7.824;2023-04-24T15:33:13;13.70;73.30
21033;DHT22;10675;47.976;7.824;2023-04-24T15:35:38;13.80;73.80
21033;DHT22;10675;47.976;7.824;2023-04-24T15:38:04;13.90;73.50
21033;DHT22;10675;47.976;7.824;2023-04-24T15:40:29;13.80;74.00